Time;durP1;ratioP1;P1;durP2;ratioP2;P2;SDS_P1;SDS_P2;PMS_P1;PMS_P2;Temp;Humidity;BMP_temperature;BMP_pressure;BME280_temperature;BME280_humidity;BME280_pressure;Samples;Min_cycle;Max_cycle;Signal;HPM_P1;HPM_P2
2024/02/29 00:01:57;;;;;;;29.77;19.47;;;5.50;99.90;;;;;;5095748;28;20172;-86
2024/02/29 00:04:31;;;;;;;25.17;18.70;;;5.20;99.90;;;;;;5093835;28;20169;-87
2024/02/29 00:06:56;;;;;;;28.98;19.20;;;5.10;99.90;;;;;;5094691;28;20526;-87
2024/02/29 00:09:22;;;;;;;28.97;21.10;;;5.40;99.90;;;;;;5092835;28;20200;-87
2024/02/29 00:11:48;;;;;;;33.20;19.67;;;4.80;99.90;;;;;;5093591;28;20164;-87
2024/02/29 00:14:15;;;;;;;27.97;20.43;;;5.00;99.90;;;;;;5092627;28;20249;-87
2024/02/29 00:16:43;;;;;;;31.70;19.73;;;;;;;;;;5091710;28;20477;-86
2024/02/29 00:19:09;;;;;;;29.50;18.35;;;4.80;99.90;;;;;;5092099;28;20173;-85
2024/02/29 00:21:34;;;;;;;32.15;19.38;;;5.30;99.90;;;;;;5093055;28;20177;-86
2024/02/29 00:24:00;;;;;;;27.37;18.97;;;5.10;99.90;;;;;;5088601;28;20180;-88
2024/02/29 00:26:26;;;;;;;31.43;20.37;;;5.30;99.90;;;;;;5092242;28;20211;-88
2024/02/29 00:28:51;;;;;;;28.67;19.00;;;5.20;99.90;;;;;;5082806;28;20209;-88
2024/02/29 00:31:17;;;;;;;27.27;19.33;;;4.80;99.90;;;;;;5075338;28;20435;-87
2024/02/29 00:33:43;;;;;;;29.73;19.17;;;4.70;99.90;;;;;;5073792;28;20192;-88
2024/02/29 00:36:08;;;;;;;30.70;19.20;;;5.20;99.90;;;;;;5070177;28;20718;-89
2024/02/29 00:38:33;;;;;;;33.30;19.93;;;5.20;99.90;;;;;;5062828;28;20556;-89
2024/02/29 00:40:59;;;;;;;30.37;20.60;;;4.70;99.90;;;;;;5068685;28;20284;-89
2024/02/29 00:43:26;;;;;;;35.53;21.30;;;4.40;99.90;;;;;;5067586;28;20219;-87
2024/02/29 00:45:52;;;;;;;34.23;21.30;;;;;;;;;;5068859;28;20207;-87
2024/02/29 00:48:18;;;;;;;30.80;20.70;;;4.50;99.90;;;;;;5069763;28;20799;-87
2024/02/29 00:50:43;;;;;;;40.07;21.73;;;4.90;99.90;;;;;;5067741;28;20806;-89
2024/02/29 00:53:09;;;;;;;31.43;20.93;;;4.30;99.90;;;;;;5070973;28;20186;-89
2024/02/29 00:55:35;;;;;;;32.58;21.30;;;4.40;99.90;;;;;;5072751;28;20228;-89
2024/02/29 00:58:00;;;;;;;30.27;20.60;;;4.50;99.90;;;;;;5071857;28;20216;-88
2024/02/29 01:00:26;;;;;;;35.10;21.80;;;4.40;99.90;;;;;;5070315;28;20824;-88
2024/02/29 01:02:51;;;;;;;32.43;20.93;;;4.90;99.90;;;;;;5075078;28;20766;-88
2024/02/29 01:05:17;;;;;;;30.07;19.97;;;4.60;99.90;;;;;;5072744;28;20204;-89
2024/02/29 01:07:42;;;;;;;30.47;19.60;;;4.30;99.90;;;;;;5070044;28;20209;-88
2024/02/29 01:10:14;;;;;;;28.80;19.67;;;4.60;99.90;;;;;;5073063;28;20211;-88
2024/02/29 01:12:41;;;;;;;32.65;20.77;;;4.70;99.90;;;;;;5075506;28;20174;-88
2024/02/29 01:15:08;;;;;;;31.10;19.10;;;4.50;99.90;;;;;;5070531;28;20208;-88
2024/02/29 01:17:34;;;;;;;33.40;19.98;;;4.50;99.90;;;;;;5074786;28;20684;-88
2024/02/29 01:19:59;;;;;;;30.60;20.27;;;4.60;99.90;;;;;;5070307;28;20193;-88
2024/02/29 01:22:25;;;;;;;33.10;21.43;;;4.50;99.90;;;;;;5074234;28;20442;-88
2024/02/29 01:24:51;;;;;;;35.17;21.60;;;4.20;99.90;;;;;;5069947;28;20645;-88
2024/02/29 01:27:17;;;;;;;36.10;20.27;;;4.30;99.90;;;;;;5070485;28;20207;-87
2024/02/29 01:29:42;;;;;;;33.90;19.00;;;3.70;99.90;;;;;;5071996;28;20230;-87
2024/02/29 01:32:09;;;;;;;30.90;20.20;;;4.20;99.90;;;;;;5075785;28;20203;-87
2024/02/29 01:34:35;;;;;;;34.50;19.13;;;4.10;99.90;;;;;;5070599;28;20661;-87
2024/02/29 01:37:00;;;;;;;36.17;20.43;;;3.90;99.90;;;;;;5071179;28;20294;-87
2024/02/29 01:39:26;;;;;;;35.70;22.50;;;4.00;99.90;;;;;;5072792;28;20218;-88
2024/02/29 01:41:51;;;;;;;29.97;18.67;;;3.90;99.90;;;;;;5070349;28;20182;-88
2024/02/29 01:44:18;;;;;;;34.20;20.13;;;3.90;99.90;;;;;;5074406;28;20190;-89
2024/02/29 01:46:44;;;;;;;32.55;19.25;;;4.00;99.90;;;;;;5069878;28;20952;-88
2024/02/29 01:49:11;;;;;;;30.20;19.80;;;3.30;99.90;;;;;;5073166;28;20286;-88
2024/02/29 01:51:38;;;;;;;31.95;19.23;;;4.00;99.90;;;;;;5078939;28;20557;-88
2024/02/29 01:54:04;;;;;;;32.05;20.70;;;3.80;99.90;;;;;;5074718;28;20277;-88
2024/02/29 01:56:29;;;;;;;30.77;19.27;;;3.90;99.90;;;;;;5074344;28;20217;-88
2024/02/29 01:58:57;;;;;;;29.37;19.70;;;3.90;99.90;;;;;;5072223;28;20198;-88
2024/02/29 02:01:23;;;;;;;32.28;19.67;;;3.90;99.90;;;;;;5074181;28;20194;-88
2024/02/29 02:03:49;;;;;;;32.20;21.40;;;4.00;99.90;;;;;;5073646;28;20686;-87
2024/02/29 02:06:14;;;;;;;32.57;20.20;;;4.30;99.90;;;;;;5076824;28;20485;-88
2024/02/29 02:08:40;;;;;;;31.97;20.93;;;3.80;99.90;;;;;;5077578;28;20210;-88
2024/02/29 02:11:05;;;;;;;30.80;20.40;;;3.70;99.90;;;;;;5075332;28;20242;-88
2024/02/29 02:13:31;;;;;;;32.27;20.53;;;4.00;99.90;;;;;;5078435;28;20179;-88
2024/02/29 02:15:56;;;;;;;34.03;21.03;;;3.60;99.90;;;;;;5074088;28;20700;-88
2024/02/29 02:18:22;;;;;;;32.70;19.40;;;3.60;99.90;;;;;;5072589;28;20199;-87
2024/02/29 02:20:49;;;;;;;28.57;20.80;;;3.80;99.90;;;;;;5069744;28;20214;-87
2024/02/29 02:23:15;;;;;;;34.38;20.45;;;3.90;99.90;;;;;;5069218;28;20233;-87
2024/02/29 02:25:40;;;;;;;32.03;20.87;;;3.80;99.90;;;;;;5074437;28;20232;-87
2024/02/29 02:28:06;;;;;;;32.47;20.70;;;3.90;99.90;;;;;;5071981;28;20182;-87
2024/02/29 02:30:31;;;;;;;33.50;21.60;;;3.70;99.90;;;;;;5074518;28;20191;-88
2024/02/29 02:32:57;;;;;;;33.20;22.07;;;3.90;99.90;;;;;;5073799;28;20190;-87
2024/02/29 02:35:22;;;;;;;32.83;21.03;;;3.80;99.90;;;;;;5072668;28;20640;-87
2024/02/29 02:37:49;;;;;;;39.07;21.47;;;3.70;99.90;;;;;;5072576;28;20178;-87
2024/02/29 02:40:15;;;;;;;36.75;19.83;;;3.80;99.90;;;;;;5069393;28;20753;-87
2024/02/29 02:42:41;;;;;;;32.75;21.00;;;3.60;99.90;;;;;;5072762;28;20279;-88
2024/02/29 02:45:07;;;;;;;34.60;20.90;;;3.60;99.90;;;;;;5073168;28;20207;-88
2024/02/29 02:47:33;;;;;;;36.95;20.90;;;3.60;99.90;;;;;;5073890;28;20192;-89
2024/02/29 02:49:59;;;;;;;32.05;20.23;;;3.50;99.90;;;;;;5073745;28;20193;-87
2024/02/29 02:52:24;;;;;;;31.17;20.80;;;3.50;99.90;;;;;;5075361;28;20247;-87
2024/02/29 02:54:50;;;;;;;32.97;20.23;;;3.40;99.90;;;;;;5068712;28;20187;-88
2024/02/29 02:57:15;;;;;;;31.50;20.60;;;3.60;99.90;;;;;;5073440;28;20258;-88
2024/02/29 02:59:41;;;;;;;36.50;21.00;;;3.40;99.90;;;;;;5076361;28;20660;-88
2024/02/29 03:02:06;;;;;;;31.73;20.97;;;3.40;99.90;;;;;;5071193;28;20682;-88
2024/02/29 03:04:32;;;;;;;35.43;22.43;;;3.70;99.90;;;;;;5072399;28;20181;-88
2024/02/29 03:06:57;;;;;;;35.63;22.37;;;3.70;99.90;;;;;;5070592;28;20203;-88
2024/02/29 03:09:23;;;;;;;35.80;23.73;;;3.30;99.90;;;;;;5071216;28;20751;-88
2024/02/29 03:11:48;;;;;;;36.57;22.80;;;3.70;99.90;;;;;;5076365;28;20227;-87
2024/02/29 03:14:15;;;;;;;37.37;21.87;;;3.30;99.90;;;;;;5071416;28;20224;-88
2024/02/29 03:16:41;;;;;;;33.53;21.85;;;3.20;99.90;;;;;;5072058;28;20205;-87
2024/02/29 03:19:07;;;;;;;33.05;22.00;;;3.40;99.90;;;;;;5071737;28;20318;-87
2024/02/29 03:21:32;;;;;;;40.23;23.23;;;3.30;99.90;;;;;;5070574;28;20205;-87
2024/02/29 03:23:58;;;;;;;34.27;20.53;;;3.30;99.90;;;;;;5071743;28;20555;-88
2024/02/29 03:26:24;;;;;;;35.95;21.35;;;3.50;99.90;;;;;;5073284;28;20265;-87
2024/02/29 03:28:50;;;;;;;36.60;21.63;;;3.80;99.90;;;;;;5073050;28;20681;-87
2024/02/29 03:31:15;;;;;;;33.90;20.80;;;3.80;99.90;;;;;;5072636;28;20434;-87
2024/02/29 03:33:41;;;;;;;32.50;20.40;;;3.40;99.90;;;;;;5073378;28;20602;-88
2024/02/29 03:36:08;;;;;;;36.03;21.30;;;3.40;99.90;;;;;;5073398;28;20289;-88
2024/02/29 03:38:37;;;;;;;36.95;20.77;;;3.70;99.90;;;;;;5071858;28;20446;-88
2024/02/29 03:41:02;;;;;;;34.50;21.08;;;3.30;99.90;;;;;;5068425;28;20322;-88
2024/02/29 03:43:28;;;;;;;35.33;21.60;;;3.40;99.90;;;;;;5071340;28;20213;-87
2024/02/29 03:45:53;;;;;;;36.10;21.93;;;3.20;99.90;;;;;;5068968;28;20654;-87
2024/02/29 03:48:19;;;;;;;32.63;20.73;;;3.40;99.90;;;;;;5070710;28;20187;-86
2024/02/29 03:50:44;;;;;;;38.37;22.03;;;3.50;99.90;;;;;;5067555;28;20187;-88
2024/02/29 03:53:10;;;;;;;34.07;20.70;;;3.20;99.90;;;;;;5055809;28;20195;-86
2024/02/29 03:55:36;;;;;;;40.70;23.25;;;3.30;99.90;;;;;;5075033;28;20197;-88
2024/02/29 03:58:03;;;;;;;35.97;22.08;;;3.10;99.90;;;;;;5065188;28;20178;-87
2024/02/29 04:00:28;;;;;;;38.72;23.48;;;3.50;99.90;;;;;;5062881;28;20273;-88
2024/02/29 04:02:54;;;;;;;34.43;22.50;;;3.00;99.90;;;;;;5071298;28;20266;-88
2024/02/29 04:05:24;;;;;;;34.33;20.97;;;2.90;99.90;;;;;;5054045;28;20223;-88
2024/02/29 04:07:50;;;;;;;36.33;22.05;;;2.80;99.90;;;;;;5069067;28;20184;-87
2024/02/29 04:10:16;;;;;;;35.78;19.70;;;2.80;99.90;;;;;;5069450;28;20552;-87
2024/02/29 04:12:42;;;;;;;41.17;21.87;;;2.80;99.90;;;;;;5071975;28;20174;-87
2024/02/29 04:15:08;;;;;;;36.10;21.50;;;3.00;99.90;;;;;;5066226;28;20268;-88
2024/02/29 04:17:33;;;;;;;40.70;22.77;;;3.20;99.90;;;;;;5071807;28;20442;-86
2024/02/29 04:19:59;;;;;;;37.30;23.63;;;3.20;99.90;;;;;;5069928;28;20190;-87
2024/02/29 04:22:24;;;;;;;40.67;21.90;;;3.00;99.90;;;;;;5072246;28;20253;-87
2024/02/29 04:24:51;;;;;;;37.07;22.53;;;3.10;99.90;;;;;;5073228;28;20196;-89
2024/02/29 04:27:16;;;;;;;41.35;23.40;;;2.80;99.90;;;;;;5071248;28;20192;-88
2024/02/29 04:29:45;;;;;;;35.23;20.70;;;3.30;99.90;;;;;;5073054;28;20195;-88
2024/02/29 04:32:11;;;;;;;36.13;22.58;;;4.10;99.90;;;;;;5074983;28;20202;-86
2024/02/29 04:34:36;;;;;;;36.70;22.77;;;3.40;99.90;;;;;;5081232;28;20178;-86
2024/02/29 04:37:03;;;;;;;36.13;21.80;;;3.30;99.90;;;;;;5081364;28;20207;-86
2024/02/29 04:39:28;;;;;;;36.05;21.70;;;3.40;99.90;;;;;;5077736;28;20208;-85
2024/02/29 04:41:54;;;;;;;36.03;22.50;;;3.10;99.90;;;;;;5082191;28;20284;-84
2024/02/29 04:44:19;;;;;;;42.47;22.23;;;3.20;99.90;;;;;;5079264;28;20196;-85
2024/02/29 04:46:45;;;;;;;34.53;22.90;;;3.10;99.90;;;;;;5079655;28;20703;-86
2024/02/29 04:49:10;;;;;;;34.57;22.63;;;3.10;99.90;;;;;;5083438;28;20207;-86
2024/02/29 04:51:36;;;;;;;36.60;22.13;;;3.40;99.90;;;;;;5075400;28;20183;-87
2024/02/29 04:54:02;;;;;;;38.90;22.73;;;3.10;99.90;;;;;;5071820;28;20244;-87
2024/02/29 04:56:28;;;;;;;36.87;23.83;;;3.40;99.90;;;;;;5077016;28;20674;-87
2024/02/29 04:58:53;;;;;;;40.65;24.50;;;2.80;99.90;;;;;;5082657;28;20213;-87
2024/02/29 05:01:19;;;;;;;36.50;22.37;;;3.20;99.90;;;;;;5071995;28;20667;-87
2024/02/29 05:03:45;;;;;;;40.95;25.75;;;2.90;99.90;;;;;;5075073;28;20185;-87
2024/02/29 05:06:15;;;;;;;38.53;23.70;;;3.10;99.90;;;;;;5071393;28;20211;-88
2024/02/29 05:08:41;;;;;;;38.97;23.30;;;3.40;99.90;;;;;;5074353;28;20205;-87
2024/02/29 05:11:10;;;;;;;41.23;24.07;;;2.80;99.90;;;;;;5075859;28;20197;-86
2024/02/29 05:13:37;;;;;;;39.90;22.65;;;2.90;99.90;;;;;;5070880;28;20187;-87
2024/02/29 05:16:06;;;;;;;35.38;23.55;;;3.30;99.90;;;;;;5081788;28;20198;-88
2024/02/29 05:18:32;;;;;;;41.28;24.35;;;2.90;99.90;;;;;;5075332;28;20231;-87
2024/02/29 05:20:58;;;;;;;36.53;23.95;;;3.00;99.90;;;;;;5070451;28;20661;-87
2024/02/29 05:23:23;;;;;;;39.93;24.27;;;2.60;99.90;;;;;;5067566;28;20186;-88
2024/02/29 05:25:49;;;;;;;37.93;23.03;;;3.60;99.90;;;;;;5065585;28;20255;-86
2024/02/29 05:28:15;;;;;;;42.37;23.30;;;2.60;99.90;;;;;;5070895;28;20197;-88
2024/02/29 05:30:41;;;;;;;40.63;23.88;;;3.00;99.90;;;;;;5071890;28;20877;-88
2024/02/29 05:33:07;;;;;;;44.30;23.33;;;3.10;99.90;;;;;;5070615;28;20247;-87
2024/02/29 05:35:33;;;;;;;41.53;24.23;;;3.20;99.90;;;;;;5072513;28;20201;-87
2024/02/29 05:37:59;;;;;;;42.25;23.75;;;3.20;99.90;;;;;;5068124;28;20315;-89
2024/02/29 05:40:26;;;;;;;41.47;23.87;;;3.10;99.90;;;;;;5066084;28;20665;-88
2024/02/29 05:42:52;;;;;;;43.50;25.10;;;3.40;99.90;;;;;;5065140;28;20213;-88
2024/02/29 05:45:17;;;;;;;36.90;23.40;;;3.50;99.90;;;;;;5067795;28;20240;-89
2024/02/29 05:47:43;;;;;;;42.27;26.30;;;3.40;99.90;;;;;;5066230;28;20431;-88
2024/02/29 05:50:09;;;;;;;41.03;25.77;;;3.40;99.90;;;;;;5067592;28;20299;-88
2024/02/29 05:52:36;;;;;;;44.37;24.50;;;3.50;99.90;;;;;;5069777;28;20185;-87
2024/02/29 05:55:05;;;;;;;43.05;25.40;;;3.50;99.90;;;;;;5069864;28;20538;-89
2024/02/29 05:57:31;;;;;;;39.03;21.73;;;3.30;99.90;;;;;;5070601;28;20213;-88
2024/02/29 06:00:00;;;;;;;36.78;23.38;;;3.80;99.90;;;;;;5069155;28;20195;-88
2024/02/29 06:02:26;;;;;;;36.30;22.65;;;3.50;99.90;;;;;;5065659;28;20206;-88
2024/02/29 06:04:51;;;;;;;39.65;22.65;;;3.20;99.90;;;;;;5070780;28;20191;-89
2024/02/29 06:07:17;;;;;;;37.10;24.60;;;3.50;99.90;;;;;;5067064;28;20189;-88
2024/02/29 06:09:42;;;;;;;39.70;25.37;;;3.40;99.90;;;;;;5069056;28;20251;-88
2024/02/29 06:12:08;;;;;;;46.03;24.90;;;3.10;99.90;;;;;;5071956;28;20197;-89
2024/02/29 06:14:34;;;;;;;41.10;26.40;;;3.10;99.90;;;;;;5073477;28;20377;-88
2024/02/29 06:17:01;;;;;;;38.60;23.92;;;3.30;99.90;;;;;;5054949;28;20696;-89
2024/02/29 06:19:26;;;;;;;36.60;23.05;;;3.70;99.90;;;;;;5075385;28;20349;-89
2024/02/29 06:21:52;;;;;;;41.23;25.17;;;3.40;99.90;;;;;;5072475;28;20235;-89
2024/02/29 06:24:20;;;;;;;37.90;23.77;;;3.80;99.90;;;;;;5072704;28;20751;-88
2024/02/29 06:26:46;;;;;;;44.50;25.15;;;3.90;99.90;;;;;;5071746;28;20613;-89
2024/02/29 06:29:12;;;;;;;41.05;23.65;;;4.70;99.90;;;;;;5072345;28;20208;-88
2024/02/29 06:31:38;;;;;;;39.20;24.37;;;3.20;99.90;;;;;;5070180;28;20268;-87
2024/02/29 06:34:03;;;;;;;38.93;25.37;;;3.70;99.90;;;;;;5075148;28;20436;-84
2024/02/29 06:36:29;;;;;;;39.20;23.83;;;3.70;99.90;;;;;;5083901;28;20224;-88
2024/02/29 06:38:54;;;;;;;39.30;24.97;;;3.60;99.90;;;;;;5073161;28;20672;-86
2024/02/29 06:41:20;;;;;;;36.83;23.33;;;3.50;99.90;;;;;;5071097;28;20196;-82
2024/02/29 06:43:46;;;;;;;42.53;25.67;;;4.00;99.90;;;;;;5077951;28;20278;-83
2024/02/29 06:46:11;;;;;;;39.77;25.57;;;3.70;99.90;;;;;;5082643;28;20320;-83
2024/02/29 06:48:37;;;;;;;39.13;25.63;;;3.30;99.90;;;;;;5080585;28;20471;-83
2024/02/29 06:51:03;;;;;;;40.90;23.80;;;3.40;99.90;;;;;;5081263;28;20174;-84
2024/02/29 06:53:31;;;;;;;40.80;25.50;;;3.30;99.90;;;;;;5079122;28;20431;-84
2024/02/29 06:55:57;;;;;;;40.72;25.08;;;3.40;99.90;;;;;;5084860;28;20297;-84
2024/02/29 06:58:23;;;;;;;40.43;24.63;;;4.00;99.90;;;;;;5083859;28;20191;-83
2024/02/29 07:00:48;;;;;;;41.53;24.60;;;3.70;99.90;;;;;;5051765;28;20240;-87
2024/02/29 07:03:49;;;;;;;36.30;22.97;;;3.50;99.90;;;;;;5064523;28;20209;-88
2024/02/29 07:06:16;;;;;;;36.90;24.33;;;;;;;;;;5062534;28;20212;-88
2024/02/29 07:08:42;;;;;;;39.25;23.35;;;;;;;;;;5069713;28;20214;-89
2024/02/29 07:11:11;;;;;;;38.10;24.38;;;;;;;;;;5070456;28;20180;-86
2024/02/29 07:13:46;;;;;;;41.17;25.25;;;;;;;;;;5071497;28;20620;-88
2024/02/29 07:16:34;;;;;;;;;;;;;;;;;;;;;
2024/02/29 07:19:10;;;;;;;39.83;24.13;;;;;;;;;;5064307;28;20315;-90
2024/02/29 07:21:38;;;;;;;37.47;23.80;;;4.40;99.90;;;;;;5067512;28;20650;-88
2024/02/29 07:24:05;;;;;;;36.03;23.67;;;4.10;99.90;;;;;;5067894;28;20192;-88
2024/02/29 07:26:31;;;;;;;36.70;24.30;;;4.60;99.90;;;;;;5071173;28;20210;-89
2024/02/29 07:28:58;;;;;;;39.50;22.63;;;;;;;;;;5070083;28;20219;-87
2024/02/29 07:31:25;;;;;;;32.55;23.42;;;;;;;;;;5067647;28;20182;-88
2024/02/29 07:33:53;;;;;;;37.60;24.73;;;;;;;;;;5069341;28;20265;-89
2024/02/29 07:36:19;;;;;;;37.22;22.35;;;;;;;;;;5068218;28;20251;-89
2024/02/29 07:39:14;;;;;;;35.03;22.90;;;4.90;99.90;;;;;;5068791;28;20216;-89
2024/02/29 07:41:41;;;;;;;35.05;22.42;;;;;;;;;;5037207;28;20571;-90
2024/02/29 07:47:29;;;;;;;32.95;20.90;;;4.10;99.90;;;;;;5351815;22;20250;-83
2024/02/29 07:49:54;;;;;;;38.43;23.00;;;4.80;99.90;;;;;;5063151;28;20260;-84
2024/02/29 07:52:20;;;;;;;29.13;21.50;;;5.40;99.90;;;;;;5063972;28;20729;-83
2024/02/29 07:54:45;;;;;;;32.80;23.57;;;5.20;99.90;;;;;;5064865;28;20237;-83
2024/02/29 07:57:11;;;;;;;32.83;22.33;;;4.90;99.90;;;;;;5046093;28;20331;-83
2024/02/29 07:59:37;;;;;;;34.97;21.27;;;5.10;99.90;;;;;;5045838;28;20232;-82
2024/02/29 08:02:02;;;;;;;33.63;22.23;;;5.30;99.90;;;;;;5047494;28;20193;-82
2024/02/29 08:04:28;;;;;;;29.17;20.80;;;5.30;99.90;;;;;;5050158;28;20251;-84
2024/02/29 08:06:53;;;;;;;39.17;23.30;;;5.70;99.90;;;;;;5047343;28;20212;-82
2024/02/29 08:09:19;;;;;;;31.97;22.10;;;5.80;99.90;;;;;;5049297;28;20213;-83
2024/02/29 08:11:44;;;;;;;34.23;22.13;;;5.70;99.90;;;;;;5048604;28;20270;-83
2024/02/29 08:14:10;;;;;;;34.90;22.90;;;6.20;99.90;;;;;;5041964;28;20215;-83
2024/02/29 08:16:35;;;;;;;32.07;22.33;;;5.90;99.90;;;;;;5048033;28;20705;-85
2024/02/29 08:19:01;;;;;;;30.60;21.20;;;5.80;99.90;;;;;;5050126;28;20204;-83
2024/02/29 08:21:26;;;;;;;32.43;22.47;;;6.10;99.90;;;;;;5049174;28;20678;-83
2024/02/29 08:23:52;;;;;;;29.60;20.80;;;6.50;99.90;;;;;;5046376;28;20185;-83
2024/02/29 08:26:17;;;;;;;31.53;20.07;;;6.30;99.90;;;;;;5047490;28;20315;-84
2024/02/29 08:28:43;;;;;;;30.13;20.47;;;6.40;99.90;;;;;;5047176;28;20226;-83
2024/02/29 08:31:09;;;;;;;30.00;20.00;;;6.20;99.90;;;;;;5065697;28;20193;-84
2024/02/29 08:33:34;;;;;;;31.83;20.90;;;6.50;99.90;;;;;;5050611;28;20490;-84
2024/02/29 08:36:01;;;;;;;30.40;21.47;;;6.70;99.90;;;;;;5049534;28;20205;-83
2024/02/29 08:38:27;;;;;;;30.55;21.23;;;6.50;99.90;;;;;;5048252;28;20228;-82
2024/02/29 08:40:52;;;;;;;30.17;22.27;;;6.60;99.90;;;;;;5048579;28;20209;-83
2024/02/29 08:43:19;;;;;;;28.27;20.87;;;6.30;99.90;;;;;;5047215;28;20193;-82
2024/02/29 08:45:44;;;;;;;26.85;17.85;;;7.00;99.90;;;;;;5062810;28;20209;-82
2024/02/29 08:48:10;;;;;;;30.20;20.27;;;7.40;99.90;;;;;;5047634;28;20185;-82
2024/02/29 08:50:37;;;;;;;28.63;19.15;;;7.90;99.90;;;;;;5052671;28;20205;-82
2024/02/29 08:53:03;;;;;;;27.37;19.00;;;8.40;99.90;;;;;;5056167;28;20178;-83
2024/02/29 08:55:28;;;;;;;26.20;19.93;;;8.20;99.90;;;;;;5052862;28;20237;-83
2024/02/29 08:57:54;;;;;;;24.57;17.27;;;8.80;99.90;;;;;;5052434;28;20647;-82
2024/02/29 09:00:19;;;;;;;22.87;17.10;;;9.90;99.90;;;;;;5046804;28;20192;-85
2024/02/29 09:02:46;;;;;;;26.80;17.90;;;11.00;99.90;;;;;;5053682;28;20310;-87
2024/02/29 09:05:12;;;;;;;26.15;18.40;;;11.40;99.10;;;;;;5054283;28;20209;-88
2024/02/29 09:07:37;;;;;;;24.53;18.00;;;12.80;98.30;;;;;;5050891;28;20189;-87
2024/02/29 09:10:03;;;;;;;24.83;17.70;;;14.70;97.40;;;;;;5048316;28;20243;-87
2024/02/29 09:12:28;;;;;;;22.70;17.80;;;12.70;96.10;;;;;;5045486;28;20328;-89
2024/02/29 09:33:02;;;;;;;;;;;;;;;;;;;;;
2024/02/29 09:35:27;;;;;;;25.38;18.02;;;12.70;98.10;;;;;;5074574;28;20215;-88
2024/02/29 09:38:04;;;;;;;26.80;18.13;;;13.00;97.80;;;;;;5069140;28;20552;-87
2024/02/29 09:40:50;;;;;;;24.85;19.25;;;14.30;96.70;;;;;;5065342;28;20184;-88
2024/02/29 09:43:22;;;;;;;23.63;18.10;;;13.50;95.60;;;;;;5089094;28;20271;-87
2024/02/29 09:45:51;;;;;;;23.95;18.48;;;13.10;95.00;;;;;;5063053;28;20685;-87
2024/02/29 09:48:31;;;;;;;24.77;19.25;;;13.60;93.50;;;;;;5068759;28;20199;-88
2024/02/29 09:51:41;;;;;;;23.58;18.20;;;13.90;92.00;;;;;;5086384;28;20641;-87
2024/02/29 09:54:49;;;;;;;22.75;17.08;;;16.90;93.40;;;;;;5058848;28;20412;-87
2024/02/29 09:57:35;;;;;;;24.20;18.75;;;15.40;90.00;;;;;;5051357;28;20193;-87
2024/02/29 10:06:39;;;;;;;24.65;18.33;;;16.40;89.00;;;;;;5045767;28;20278;-87
2024/02/29 10:16:34;;;;;;;23.08;18.23;;;16.90;80.50;;;;;;4895656;29;20305;-87
2024/02/29 10:19:02;;;;;;;27.00;20.02;;;19.50;86.70;;;;;;4892206;28;20286;-87
2024/02/29 10:21:34;;;;;;;21.00;17.23;;;17.20;84.10;;;;;;5032471;28;20551;-88
2024/02/29 10:24:23;;;;;;;23.58;18.30;;;18.80;83.00;;;;;;5068717;28;20517;-88
2024/02/29 10:26:50;;;;;;;25.27;19.10;;;17.90;81.60;;;;;;5073560;28;20675;-86
2024/02/29 10:29:57;;;;;;;24.95;19.40;;;19.20;81.40;;;;;;5075812;28;20217;-87
2024/02/29 10:32:04;;;;;;;22.17;18.83;;;19.90;78.70;;;;;;5058503;28;20211;-88
2024/02/29 10:34:35;;;;;;;23.97;20.23;;;18.70;76.90;;;;;;5071754;28;20180;-88
2024/02/29 10:37:22;;;;;;;24.30;18.60;;;19.00;78.80;;;;;;5091675;28;20454;-88
2024/02/29 10:39:47;;;;;;;21.17;17.88;;;17.50;81.90;;;;;;5065912;28;20735;-87
2024/02/29 10:42:18;;;;;;;23.30;17.83;;;16.80;79.60;;;;;;5066445;28;20298;-87
2024/02/29 11:05:32;;;;;;;23.10;19.25;;;17.00;82.50;;;;;;5268197;22;20249;-88
2024/02/29 11:07:58;;;;;;;19.77;17.48;;;17.20;78.40;;;;;;5031910;28;20208;-86
2024/02/29 11:10:24;;;;;;;20.33;16.67;;;17.10;77.70;;;;;;5020666;28;20657;-88
2024/02/29 11:12:57;;;;;;;20.67;16.20;;;17.60;78.50;;;;;;5039409;28;20426;-88
2024/02/29 12:22:50;;;;;;;;;;;;;;;;;;;;;
2024/02/29 12:25:33;;;;;;;16.83;12.45;;;16.00;83.00;;;;;;5024400;28;20228;-91
2024/02/29 12:28:02;;;;;;;14.48;11.43;;;;;;;;;;5045492;28;20272;-89
2024/02/29 12:30:38;;;;;;;;;;;;;;;;;;;;;
2024/02/29 12:33:07;;;;;;;14.45;11.48;;;18.00;85.50;;;;;;5046462;28;20739;-89
2024/02/29 12:38:57;;;;;;;11.95;10.38;;;16.00;78.70;;;;;;5041738;28;20704;-89
2024/02/29 12:41:47;;;;;;;12.13;10.82;;;16.60;84.50;;;;;;5045586;28;20185;-89
2024/02/29 12:44:50;;;;;;;13.38;11.68;;;15.90;81.00;;;;;;5058169;28;20181;-89
2024/02/29 12:47:18;;;;;;;15.25;10.38;;;15.00;80.00;;;;;;5054169;28;20942;-89
2024/02/29 12:50:30;;;;;;;11.55;9.98;;;16.60;83.60;;;;;;5047470;28;20616;-91
2024/02/29 12:53:34;;;;;;;12.35;9.93;;;15.70;79.60;;;;;;5054851;28;20272;-90
2024/02/29 12:58:36;;;;;;;18.13;11.38;;;15.30;79.00;;;;;;5452623;22;20614;-89
2024/02/29 13:05:10;;;;;;;10.82;9.00;;;15.00;82.30;;;;;;4999663;28;20199;-90
2024/02/29 13:11:11;;;;;;;9.98;8.38;;;14.50;79.50;;;;;;4929673;29;20292;-89
2024/02/29 13:13:37;;;;;;;8.77;7.88;;;14.40;82.20;;;;;;4933302;29;20226;-89
2024/02/29 13:16:05;;;;;;;8.52;7.70;;;15.60;84.20;;;;;;4999263;22;20244;-88
2024/02/29 13:18:43;;;;;;;;;;;;;;;;;;;;;
2024/02/29 13:21:12;;;;;;;10.15;8.25;;;14.70;81.20;;;;;;5057887;28;20185;-90
2024/02/29 13:23:38;;;;;;;8.25;7.45;;;17.10;85.60;;;;;;5017767;28;20284;-88
2024/02/29 13:26:03;;;;;;;9.50;7.87;;;15.70;82.40;;;;;;5023337;28;20289;-89
2024/02/29 13:31:43;;;;;;;11.95;8.10;;;14.50;79.60;;;;;;4963765;28;20186;-91
2024/02/29 13:37:20;;;;;;;10.05;8.48;;;14.90;81.20;;;;;;5629148;22;20243;-89
2024/02/29 13:39:46;;;;;;;11.13;8.13;;;13.40;79.60;;;;;;5055147;28;20185;-88
2024/02/29 13:42:19;;;;;;;11.20;8.60;;;;;;;;;;5075065;28;20186;-89
2024/02/29 13:48:34;;;;;;;;;;;;;;;;;;;;;
2024/02/29 13:51:43;;;;;;;12.55;9.50;;;16.40;89.90;;;;;;5073848;28;20200;-90
2024/02/29 13:54:09;;;;;;;11.98;9.15;;;13.70;83.40;;;;;;5075080;28;20191;-89
2024/02/29 13:56:35;;;;;;;12.30;9.23;;;;;;;;;;5071573;28;20200;-91
2024/02/29 13:59:54;;;;;;;11.83;9.53;;;14.30;81.90;;;;;;5057223;28;20232;-91
2024/02/29 14:26:28;;;;;;;14.95;10.38;;;14.00;85.90;;;;;;5486056;22;20247;-90
2024/02/29 14:28:55;;;;;;;11.77;9.82;;;16.00;90.30;;;;;;5057019;28;20304;-92
2024/02/29 14:31:23;;;;;;;11.27;9.75;;;15.00;89.80;;;;;;5071289;28;20199;-87
2024/02/29 14:33:54;;;;;;;11.45;9.38;;;14.90;89.60;;;;;;5079602;28;20240;-87
2024/02/29 14:39:13;;;;;;;16.65;9.93;;;13.80;86.80;;;;;;5303195;22;20224;-89
2024/02/29 14:50:34;;;;;;;10.85;9.18;;;14.40;88.80;;;;;;5733029;22;20323;-91
2024/02/29 15:07:10;;;;;;;13.52;10.65;;;14.00;91.70;;;;;;4941932;28;20212;-90
2024/02/29 15:10:01;;;;;;;12.88;11.35;;;14.20;90.50;;;;;;4944570;28;20221;-90
2024/02/29 15:28:31;;;;;;;18.00;12.43;;;15.70;95.50;;;;;;5022363;28;20341;-88
2024/02/29 15:31:00;;;;;;;13.90;10.85;;;12.50;91.10;;;;;;5032492;28;20236;-91
2024/02/29 15:33:26;;;;;;;15.85;12.00;;;12.80;91.10;;;;;;5037813;28;20587;-89
2024/02/29 15:35:53;;;;;;;16.73;12.90;;;15.10;93.10;;;;;;5029076;28;20205;-90
2024/02/29 15:38:24;;;;;;;15.95;12.02;;;11.90;93.10;;;;;;5020032;28;20965;-88
2024/02/29 15:40:52;;;;;;;14.38;11.25;;;15.10;93.40;;;;;;5034412;28;20192;-91
2024/02/29 15:43:59;;;;;;;12.88;11.10;;;14.40;93.30;;;;;;5038525;28;20189;-89
2024/02/29 15:47:05;;;;;;;15.88;12.35;;;13.30;91.10;;;;;;4973492;28;20219;-88
2024/02/29 15:53:13;;;;;;;15.25;11.50;;;13.30;91.20;;;;;;4951517;28;20192;-87
2024/02/29 16:02:23;;;;;;;14.98;12.13;;;14.10;91.90;;;;;;5059654;28;20192;-86
2024/02/29 16:04:49;;;;;;;16.33;12.13;;;12.70;92.10;;;;;;5038094;28;20757;-87
2024/02/29 16:07:15;;;;;;;16.93;12.90;;;;;;;;;;5043589;28;20209;-87
2024/02/29 16:09:41;;;;;;;15.50;12.15;;;13.30;91.30;;;;;;5038971;28;20871;-89
2024/02/29 16:12:56;;;;;;;;;;;;;;;;;;;;;
2024/02/29 16:15:22;;;;;;;15.18;11.82;;;13.40;92.20;;;;;;5054779;28;20304;-91
2024/02/29 16:17:48;;;;;;;16.87;13.23;;;;;;;;;;5037280;28;20259;-89
2024/02/29 16:20:14;;;;;;;16.30;11.63;;;13.00;91.60;;;;;;5033612;28;20524;-87
2024/02/29 16:22:39;;;;;;;18.40;13.70;;;13.50;93.20;;;;;;5036813;28;20265;-88
2024/02/29 16:25:05;;;;;;;17.97;13.10;;;;;;;;;;5040984;28;20288;-86
2024/02/29 16:27:31;;;;;;;19.83;14.23;;;12.90;92.60;;;;;;5037768;28;20190;-87
2024/02/29 16:29:57;;;;;;;19.80;15.03;;;;;;;;;;5037052;28;20315;-86
2024/02/29 16:32:23;;;;;;;20.60;14.67;;;12.80;93.30;;;;;;5035385;28;20185;-89
2024/02/29 16:34:49;;;;;;;20.97;14.60;;;;;;;;;;5051560;28;20475;-86
2024/02/29 16:37:14;;;;;;;20.08;15.02;;;12.50;94.10;;;;;;5039148;28;20208;-85
2024/02/29 16:39:41;;;;;;;19.20;14.50;;;;;;;;;;5051004;28;20277;-85
2024/02/29 16:42:09;;;;;;;20.38;15.38;;;12.10;95.00;;;;;;5040629;28;20571;-86